createdAt,value
2024-01-16T00:04:32.484Z,25.42
2024-01-16T00:09:38.365Z,31.02
2024-01-16T00:14:41.169Z,32.03
2024-01-16T00:19:43.812Z,27.92
2024-01-16T00:24:46.093Z,29.02
2024-01-16T00:29:48.501Z,36.42
2024-01-16T00:34:50.912Z,30.40
2024-01-16T00:39:53.435Z,36.42
2024-01-16T00:44:55.766Z,35.55
2024-01-16T00:49:58.046Z,28.10
2024-01-16T00:55:00.754Z,26.45
2024-01-16T01:00:03.123Z,28.35
2024-01-16T01:05:05.804Z,28.95
2024-01-16T01:10:08.669Z,27.23
2024-01-16T01:15:11.982Z,27.83
2024-01-16T01:20:14.533Z,29.95
2024-01-16T01:25:17.207Z,24.88
2024-01-16T01:30:19.756Z,25.35
2024-01-16T01:35:22.177Z,25.77
2024-01-16T01:40:24.429Z,29.88
2024-01-16T01:45:26.883Z,25.25
2024-01-16T01:50:29.380Z,26.45
2024-01-16T01:55:32.209Z,24.95
2024-01-16T02:00:35.271Z,23.60
2024-01-16T02:05:40.432Z,23.13
2024-01-16T02:10:47.436Z,25.23
2024-01-16T02:15:49.585Z,25.75
2024-01-16T02:20:52.071Z,29.58
2024-01-16T02:25:55.161Z,26.50
2024-01-16T02:30:58.077Z,25.52
2024-01-16T02:36:00.271Z,23.42
2024-01-16T02:41:02.517Z,32.72
2024-01-16T02:46:05.183Z,28.60
2024-01-16T02:51:07.357Z,29.15
2024-01-16T02:56:10.318Z,28.30
2024-01-16T03:01:12.919Z,29.35
2024-01-16T03:06:26.158Z,33.75
2024-01-16T03:11:30.109Z,33.85
2024-01-16T03:16:33.686Z,33.30
2024-01-16T03:21:35.912Z,33.47
2024-01-16T03:26:42.083Z,33.85
2024-01-16T03:31:44.488Z,30.08
2024-01-16T03:36:46.658Z,30.23
2024-01-16T03:41:48.845Z,32.45
2024-01-16T03:46:51.147Z,25.92
2024-01-16T03:51:53.485Z,24.67
2024-01-16T03:56:56.066Z,25.15
2024-01-16T04:01:59.006Z,25.42
2024-01-16T04:07:01.295Z,23.05
2024-01-16T04:12:04.154Z,27.17
2024-01-16T04:17:07.426Z,29.20
2024-01-16T04:22:10.633Z,23.50
2024-01-16T04:27:14.018Z,23.05
2024-01-16T04:32:16.230Z,25.17
2024-01-16T04:37:18.562Z,23.60
2024-01-16T04:42:20.864Z,26.25
2024-01-16T04:47:23.937Z,24.25
2024-01-16T04:52:26.304Z,25.73
2024-01-16T04:57:28.640Z,28.80
2024-01-16T05:02:30.871Z,31.08
2024-01-16T05:07:33.201Z,31.35
2024-01-16T05:12:35.401Z,26.42
2024-01-16T05:17:37.733Z,25.67
2024-01-16T05:22:40.545Z,32.17
2024-01-16T05:27:44.796Z,57.42
2024-01-16T05:32:47.323Z,51.63
2024-01-16T05:37:49.657Z,37.17
2024-01-16T05:42:51.895Z,34.17
2024-01-16T05:47:54.202Z,34.75
2024-01-16T05:52:56.423Z,35.90
2024-01-16T05:57:58.728Z,30.58
2024-01-16T06:03:01.168Z,34.17
2024-01-16T06:08:04.358Z,35.63
2024-01-16T06:13:06.560Z,39.15
2024-01-16T06:18:10.415Z,37.38
2024-01-16T06:23:12.689Z,32.75
2024-01-16T06:28:14.799Z,35.53
2024-01-16T06:33:17.058Z,28.98
2024-01-16T06:38:19.933Z,35.08
2024-01-16T06:43:22.179Z,34.45
2024-01-16T06:48:24.962Z,34.30
2024-01-16T06:53:27.426Z,40.55
2024-01-16T06:58:29.707Z,39.58
2024-01-16T07:03:31.968Z,34.58
2024-01-16T07:08:34.526Z,31.10
2024-01-16T07:13:36.778Z,29.58
2024-01-16T07:18:40.315Z,32.80
2024-01-16T07:23:42.866Z,32.97
2024-01-16T07:28:45.410Z,35.22
2024-01-16T07:33:47.744Z,32.88
2024-01-16T07:38:50.047Z,34.95
2024-01-16T07:43:52.281Z,35.90
2024-01-16T07:48:54.571Z,33.08
2024-01-16T07:54:08.120Z,37.97
2024-01-16T07:59:10.381Z,30.08
2024-01-16T08:04:12.622Z,27.75
2024-01-16T08:09:15.575Z,28.20
2024-01-16T08:14:17.726Z,30.30
2024-01-16T08:19:20.361Z,25.15
2024-01-16T08:24:23.110Z,27.27
2024-01-16T08:29:26.047Z,27.25
2024-01-16T08:34:28.445Z,26.50
2024-01-16T08:39:34.522Z,27.75
2024-01-16T08:44:36.720Z,27.02
2024-01-16T08:49:40.046Z,23.20
2024-01-16T08:54:42.330Z,26.05
2024-01-16T08:59:44.478Z,26.27
2024-01-16T09:04:47.133Z,19.30
2024-01-16T09:09:49.322Z,17.67
2024-01-16T09:14:51.609Z,17.75
2024-01-16T09:19:53.795Z,20.85
2024-01-16T09:24:55.932Z,20.60
2024-01-16T09:29:58.206Z,24.98
2024-01-16T09:35:02.553Z,21.50
2024-01-16T09:40:06.612Z,26.67
2024-01-16T09:45:10.734Z,20.35
2024-01-16T09:50:13.693Z,18.55
2024-01-16T09:55:16.493Z,23.52
2024-01-16T10:00:18.990Z,20.08
2024-01-16T10:05:22.432Z,25.80
2024-01-16T10:10:34.358Z,22.35
2024-01-16T10:15:41.176Z,29.15
2024-01-16T10:20:43.350Z,30.48
2024-01-16T10:25:45.478Z,31.55
2024-01-16T10:30:47.755Z,36.60
2024-01-16T10:35:50.114Z,26.77
2024-01-16T10:41:06.872Z,28.02
2024-01-16T10:46:13.617Z,24.75
2024-01-16T10:51:16.740Z,29.88
2024-01-16T10:56:20.731Z,31.42
2024-01-16T11:01:23.344Z,31.52
2024-01-16T11:06:25.959Z,27.70
2024-01-16T11:11:29.103Z,29.35
2024-01-16T11:16:33.985Z,18.55
2024-01-16T11:21:38.578Z,17.65
2024-01-16T11:26:44.626Z,17.17
2024-01-16T11:31:46.865Z,16.63
2024-01-16T11:36:56.360Z,17.90
2024-01-16T11:47:04.222Z,14.60
2024-01-16T11:52:06.662Z,14.77
2024-01-16T11:57:23.774Z,11.55
2024-01-16T12:02:49.270Z,12.27
2024-01-16T12:07:54.274Z,18.05
2024-01-16T12:13:05.569Z,17.42
2024-01-16T12:18:13.671Z,9.80
2024-01-16T12:23:23.428Z,10.30
2024-01-16T12:28:32.188Z,9.70
2024-01-16T12:33:36.055Z,18.42
2024-01-16T12:38:38.388Z,21.70
2024-01-16T12:43:41.194Z,11.55
2024-01-16T12:48:52.859Z,14.30
2024-01-16T12:54:15.628Z,9.35
2024-01-16T12:59:19.375Z,14.33
2024-01-16T13:04:22.956Z,17.95
2024-01-16T13:09:25.137Z,30.33
2024-01-16T13:14:27.856Z,24.85
2024-01-16T13:19:34.910Z,18.20
2024-01-16T13:24:37.522Z,32.55
2024-01-16T13:29:41.765Z,25.95
2024-01-16T13:34:50.213Z,36.20
2024-01-16T13:39:52.396Z,30.15
2024-01-16T13:44:55.857Z,28.80
2024-01-16T13:49:58.243Z,31.10
2024-01-16T13:55:00.761Z,32.00
2024-01-16T14:00:05.016Z,32.58
2024-01-16T14:05:07.416Z,36.65
2024-01-16T14:10:13.702Z,35.55
2024-01-16T14:15:21.169Z,30.58
2024-01-16T14:20:27.754Z,38.90
2024-01-16T14:25:30.823Z,35.33
2024-01-16T14:30:37.528Z,38.45
2024-01-16T14:35:40.127Z,52.03
2024-01-16T14:40:42.304Z,53.97
2024-01-16T14:45:44.534Z,29.60
2024-01-16T14:50:48.703Z,46.30
2024-01-16T14:55:53.305Z,60.40
2024-01-16T15:00:57.159Z,57.83
2024-01-16T15:05:59.451Z,51.92
2024-01-16T15:11:01.773Z,48.72
2024-01-16T15:16:04.300Z,66.50
2024-01-16T15:21:06.520Z,55.05
2024-01-16T15:26:08.781Z,75.25
2024-01-16T15:31:11.130Z,62.60
2024-01-16T15:36:13.341Z,64.72
2024-01-16T15:41:15.645Z,69.65
2024-01-16T15:46:18.047Z,66.05
2024-01-16T15:51:20.416Z,78.07
2024-01-16T15:56:22.828Z,83.82
2024-01-16T16:01:24.982Z,96.20
2024-01-16T16:06:27.262Z,86.50
2024-01-16T16:11:29.720Z,125.95
2024-01-16T16:16:34.896Z,114.18
2024-01-16T16:21:37.411Z,64.55
2024-01-16T16:26:45.096Z,66.63
2024-01-16T16:31:47.416Z,51.72
2024-01-16T16:36:49.608Z,32.58
2024-01-16T16:41:52.432Z,25.02
2024-01-16T16:46:54.706Z,25.77
2024-01-16T16:51:57.650Z,22.58
2024-01-16T16:57:00.000Z,24.42
2024-01-16T17:02:02.247Z,24.15
2024-01-16T17:07:04.965Z,23.25
2024-01-16T17:12:07.880Z,21.67
2024-01-16T17:17:11.100Z,36.38
2024-01-16T17:22:13.268Z,41.67
2024-01-16T17:27:15.469Z,43.30
2024-01-16T17:32:19.760Z,36.17
2024-01-16T17:37:21.961Z,27.92
2024-01-16T17:42:24.382Z,36.42
2024-01-16T17:47:27.355Z,40.85
2024-01-16T17:52:30.597Z,32.45
2024-01-16T17:57:32.960Z,39.00
2024-01-16T18:02:35.195Z,28.40
2024-01-16T18:07:39.050Z,26.83
2024-01-16T18:12:41.926Z,34.10
2024-01-16T18:17:46.360Z,39.28
2024-01-16T18:22:57.272Z,37.65
2024-01-16T18:28:00.868Z,33.33
2024-01-16T18:33:04.481Z,42.05
2024-01-16T18:38:09.010Z,22.98
2024-01-16T18:48:31.154Z,37.33
2024-01-16T18:53:33.469Z,29.67
2024-01-16T18:58:35.598Z,48.17
2024-01-16T19:03:37.836Z,43.53
2024-01-16T19:08:44.046Z,46.58
2024-01-16T19:13:46.395Z,77.68
2024-01-16T19:18:48.671Z,57.83
2024-01-16T19:23:51.660Z,44.10
2024-01-16T19:28:54.182Z,47.47
2024-01-16T19:33:56.606Z,49.83
2024-01-16T19:38:59.550Z,36.15
2024-01-16T19:44:02.116Z,40.00
2024-01-16T19:49:06.810Z,34.13
2024-01-16T19:54:09.613Z,26.55
2024-01-16T19:59:12.003Z,28.73
2024-01-16T20:04:14.238Z,29.92
2024-01-16T20:09:20.248Z,28.80
2024-01-16T20:14:22.824Z,31.80
2024-01-16T20:19:25.037Z,31.15
2024-01-16T20:24:30.508Z,30.52
2024-01-16T20:29:32.664Z,35.17
2024-01-16T20:34:35.646Z,30.77
2024-01-16T20:39:37.813Z,30.35
2024-01-16T20:44:40.096Z,25.75
2024-01-16T20:49:42.432Z,39.20
2024-01-16T20:54:44.660Z,33.88
2024-01-16T20:59:47.366Z,38.88
2024-01-16T21:04:49.614Z,41.40
2024-01-16T21:09:51.829Z,36.00
2024-01-16T21:14:53.988Z,34.80
2024-01-16T21:19:56.216Z,38.22
2024-01-16T21:24:58.455Z,40.42
2024-01-16T21:30:00.786Z,41.22
2024-01-16T21:35:03.069Z,41.10
2024-01-16T21:40:06.800Z,39.30
2024-01-16T21:45:09.297Z,48.97
2024-01-16T21:50:13.495Z,56.90
2024-01-16T21:55:16.151Z,59.33
2024-01-16T22:00:19.300Z,58.42
2024-01-16T22:05:21.859Z,52.75
2024-01-16T22:10:24.735Z,56.67
2024-01-16T22:15:27.276Z,44.65
2024-01-16T22:20:33.691Z,37.70
2024-01-16T22:25:36.024Z,35.40
2024-01-16T22:30:38.300Z,42.25
2024-01-16T22:35:40.508Z,38.72
2024-01-16T22:40:42.671Z,39.03
2024-01-16T22:45:46.674Z,37.17
2024-01-16T22:50:51.098Z,24.85
2024-01-16T22:55:53.340Z,34.00
2024-01-16T23:00:55.600Z,31.20
2024-01-16T23:05:58.251Z,31.33
2024-01-16T23:11:01.320Z,26.50
2024-01-16T23:16:04.115Z,26.58
2024-01-16T23:21:07.023Z,24.17
2024-01-16T23:26:11.473Z,20.95
2024-01-16T23:31:14.462Z,23.45
2024-01-16T23:36:17.708Z,22.42
2024-01-16T23:41:20.738Z,22.55
2024-01-16T23:46:22.891Z,22.98
2024-01-16T23:51:25.388Z,24.45
2024-01-16T23:56:27.635Z,27.23
